Terminal Aerodrome Forecast
Issued by NWS

Current Version | Previous Version | Text Only | Print | Product List | Glossary On
Versions: 1 2 3 4 5 6 7 8 9 10 11 12 13 14 15 16 17 18 19 20
000
FTUS46 KMFR 282004 AAA
TAFRBG
TAF AMD
KRBG 282004Z 2820/2918 00000KT P6SM OVC008
     FM282200 VRB03KT P6SM SCT008 OVC015
     FM282300 VRB03KT P6SM SCT015 OVC100
     FM291000 00000KT 1SM BR OVC004=

USA.gov is the U.S. government's official web portal to all federal, state and local government web resources and services.